createdAt,value
2022-07-25T00:01:59.614Z,97506.44
2022-07-25T00:04:28.200Z,97506.22
2022-07-25T00:06:55.981Z,97505.66
2022-07-25T00:09:23.602Z,97507.97
2022-07-25T00:11:51.196Z,97504.63
2022-07-25T00:14:18.840Z,97497.72
2022-07-25T00:16:47.815Z,97494.53
2022-07-25T00:19:15.498Z,97495.16
2022-07-25T00:21:43.149Z,97505.91
2022-07-25T00:24:11.021Z,97499.72
2022-07-25T00:26:40.444Z,97500.94
2022-07-25T00:29:08.483Z,97504.28
2022-07-25T00:31:36.449Z,97497.03
2022-07-25T00:34:05.833Z,97506.50
2022-07-25T00:36:33.808Z,97494.38
2022-07-25T00:39:01.468Z,97493.91
2022-07-25T00:41:29.211Z,97496.41
2022-07-25T00:43:56.832Z,97482.97
2022-07-25T00:46:24.598Z,97487.16
2022-07-25T00:48:52.391Z,97484.84
2022-07-25T00:51:21.496Z,97478.28
2022-07-25T00:53:49.226Z,97478.22
2022-07-25T00:56:17.065Z,97474.88
2022-07-25T00:58:45.421Z,97473.16
2022-07-25T01:01:13.124Z,97463.31
2022-07-25T01:03:40.774Z,97466.72
2022-07-25T01:06:09.205Z,97461.81
2022-07-25T01:08:38.375Z,97468.84
2022-07-25T01:11:06.634Z,97466.38
2022-07-25T01:13:34.792Z,97465.16
2022-07-25T01:16:02.547Z,97465.56
2022-07-25T01:18:30.234Z,97464.09
2022-07-25T01:20:59.233Z,97463.50
2022-07-25T01:23:26.911Z,97465.78
2022-07-25T01:25:54.878Z,97465.19
2022-07-25T01:28:22.527Z,97464.38
2022-07-25T01:30:50.184Z,97456.50
2022-07-25T01:33:18.493Z,97459.38
2022-07-25T01:35:46.380Z,97455.19
2022-07-25T01:38:16.377Z,97456.03
2022-07-25T01:40:44.838Z,97453.59
2022-07-25T01:43:12.815Z,97451.94
2022-07-25T01:45:40.510Z,97444.88
2022-07-25T01:48:08.564Z,97449.91
2022-07-25T01:50:36.375Z,97444.56
2022-07-25T01:53:04.480Z,97443.09
2022-07-25T01:55:33.499Z,97447.03
2022-07-25T01:58:01.134Z,97446.22
2022-07-25T02:00:29.203Z,97451.00
2022-07-25T02:03:10.761Z,97451.63
2022-07-25T02:05:38.495Z,97445.81
2022-07-25T02:08:06.216Z,97440.59
2022-07-25T02:10:35.277Z,97438.38
2022-07-25T02:13:03.505Z,97435.28
2022-07-25T02:15:31.405Z,97430.47
2022-07-25T02:17:59.299Z,97439.56
2022-07-25T02:20:26.957Z,97430.50
2022-07-25T02:22:54.617Z,97427.63
2022-07-25T02:25:22.695Z,97424.88
2022-07-25T02:27:51.982Z,97421.75
2022-07-25T02:30:19.695Z,97428.44
2022-07-25T02:32:47.328Z,97422.41
2022-07-25T02:35:14.992Z,97421.81
2022-07-25T02:37:42.675Z,97412.72
2022-07-25T02:40:11.341Z,97405.50
2022-07-25T02:42:39.171Z,97402.03
2022-07-25T02:45:09.470Z,97401.22
2022-07-25T02:47:37.145Z,97403.66
2022-07-25T02:50:05.475Z,97396.25
2022-07-25T02:52:33.154Z,97403.06
2022-07-25T02:55:04.879Z,97398.72
2022-07-25T02:57:36.671Z,97406.16
2022-07-25T03:00:05.475Z,97401.41
2022-07-25T03:02:34.555Z,97403.06
2022-07-25T03:05:02.296Z,97407.63
2022-07-25T03:07:30.078Z,97406.97
2022-07-25T03:09:57.712Z,97403.47
2022-07-25T03:12:25.377Z,97405.97
2022-07-25T03:14:53.056Z,97407.00
2022-07-25T03:17:20.925Z,97416.69
2022-07-25T03:19:49.947Z,97413.00
2022-07-25T03:22:17.681Z,97404.94
2022-07-25T03:24:45.332Z,97407.22
2022-07-25T03:27:13.336Z,97405.34
2022-07-25T03:29:41.116Z,97412.38
2022-07-25T03:32:09.139Z,97413.22
2022-07-25T03:34:37.211Z,97405.97
2022-07-25T03:37:06.604Z,97412.97
2022-07-25T03:39:34.369Z,97409.47
2022-07-25T03:42:02.005Z,97408.66
2022-07-25T03:44:29.645Z,97406.56
2022-07-25T03:46:57.260Z,97408.03
2022-07-25T03:49:24.928Z,97410.09
2022-07-25T03:51:52.563Z,97413.16
2022-07-25T03:54:21.610Z,97410.91
2022-07-25T03:56:51.708Z,97412.38
2022-07-25T03:59:21.412Z,97409.88
2022-07-25T04:01:50.960Z,97408.44
2022-07-25T04:04:19.500Z,97406.34
2022-07-25T04:06:47.519Z,97409.81
2022-07-25T04:09:15.805Z,97404.44
2022-07-25T04:11:44.847Z,97413.13
2022-07-25T04:14:13.193Z,97412.09
2022-07-25T04:16:41.723Z,97408.78
2022-07-25T04:19:09.410Z,97404.88
2022-07-25T04:21:37.899Z,97408.59
2022-07-25T04:24:06.459Z,97399.50
2022-07-25T04:26:34.457Z,97402.19
2022-07-25T04:29:04.101Z,97400.69
2022-07-25T04:31:31.936Z,97397.19
2022-07-25T04:33:59.945Z,97392.69
2022-07-25T04:36:27.648Z,97382.59
2022-07-25T04:38:55.529Z,97382.59
2022-07-25T04:41:23.300Z,97388.19
2022-07-25T04:43:51.071Z,97394.75
2022-07-25T04:46:23.591Z,97395.84
2022-07-25T04:48:51.923Z,97390.50
2022-07-25T04:51:20.190Z,97390.44
2022-07-25T04:53:48.257Z,97391.31
2022-07-25T04:56:15.980Z,97395.00
2022-07-25T04:58:43.954Z,97379.56
2022-07-25T05:01:11.680Z,97377.28
2022-07-25T05:03:40.881Z,97379.13
2022-07-25T05:06:18.136Z,97381.81
2022-07-25T05:08:46.226Z,97376.44
2022-07-25T05:11:13.897Z,97376.44
2022-07-25T05:13:41.917Z,97371.50
2022-07-25T05:16:09.805Z,97362.22
2022-07-25T05:18:37.486Z,97361.59
2022-07-25T05:21:06.600Z,97357.84
2022-07-25T05:23:34.233Z,97363.88
2022-07-25T05:26:02.351Z,97366.13
2022-07-25T05:28:30.127Z,97360.31
2022-07-25T05:30:57.816Z,97370.22
2022-07-25T05:33:26.525Z,97372.72
2022-07-25T05:35:54.283Z,97371.06
2022-07-25T05:38:23.428Z,97370.41
2022-07-25T05:40:52.436Z,97371.03
2022-07-25T05:43:20.330Z,97359.47
2022-07-25T05:45:48.380Z,97354.91
2022-07-25T05:48:16.158Z,97354.50
2022-07-25T05:50:45.954Z,97355.66
2022-07-25T05:53:13.601Z,97353.81
2022-07-25T05:55:42.949Z,97350.72
2022-07-25T05:58:11.079Z,97353.19
2022-07-25T06:00:39.259Z,97341.94
2022-07-25T06:03:07.291Z,97356.22
2022-07-25T06:05:34.996Z,97354.38
2022-07-25T06:08:02.661Z,97355.97
2022-07-25T06:10:30.380Z,97352.19
2022-07-25T06:12:59.410Z,97345.53
2022-07-25T06:15:27.831Z,97353.81
2022-07-25T06:17:55.894Z,97355.72
2022-07-25T06:20:23.922Z,97355.06
2022-07-25T06:22:51.579Z,97352.81
2022-07-25T06:25:19.344Z,97349.28
2022-07-25T06:27:47.195Z,97348.53
2022-07-25T06:30:20.086Z,97344.59
2022-07-25T06:32:48.552Z,97335.91
2022-07-25T06:35:16.372Z,97329.28
2022-07-25T06:37:44.152Z,97315.97
2022-07-25T06:40:12.449Z,97321.19
2022-07-25T06:42:40.454Z,97322.22
2022-07-25T06:45:10.370Z,97313.69
2022-07-25T06:47:40.343Z,97316.06
2022-07-25T06:50:11.260Z,97316.03
2022-07-25T06:52:39.536Z,97313.19
2022-07-25T06:55:10.358Z,97311.50
2022-07-25T06:57:38.580Z,97307.09
2022-07-25T07:00:10.175Z,97306.16
2022-07-25T07:02:48.709Z,97304.84
2022-07-25T07:05:16.443Z,97310.47
2022-07-25T07:07:47.643Z,97310.97
2022-07-25T07:10:15.872Z,97310.97
2022-07-25T07:12:43.981Z,97304.66
2022-07-25T07:15:12.479Z,97311.91
2022-07-25T07:17:41.523Z,97313.88
2022-07-25T07:20:10.321Z,97312.56
2022-07-25T07:22:45.048Z,97302.78
2022-07-25T07:25:14.258Z,97310.88
2022-07-25T07:27:42.072Z,97301.16
2022-07-25T07:30:11.018Z,97290.88
2022-07-25T07:32:38.860Z,97287.78
2022-07-25T07:35:08.680Z,97293.19
2022-07-25T07:37:41.393Z,97288.72
2022-07-25T07:40:17.360Z,97287.66
2022-07-25T07:42:47.469Z,97294.00
2022-07-25T07:45:16.341Z,97290.25
2022-07-25T07:47:44.501Z,97279.91
2022-07-25T07:50:13.553Z,97282.38
2022-07-25T07:52:41.226Z,97285.41
2022-07-25T07:55:27.083Z,97288.34
2022-07-25T07:57:54.849Z,97288.28
2022-07-25T08:00:23.111Z,97283.66
2022-07-25T08:02:52.638Z,97282.78
2022-07-25T08:05:26.621Z,97290.97
2022-07-25T08:07:54.977Z,97289.28
2022-07-25T08:10:24.039Z,97289.69
2022-07-25T08:12:51.760Z,97282.34
2022-07-25T08:15:21.032Z,97284.56
2022-07-25T08:17:50.236Z,97283.91
2022-07-25T08:20:37.031Z,97287.53
2022-07-25T08:23:07.019Z,97280.44
2022-07-25T08:25:36.260Z,97274.75
2022-07-25T08:28:04.174Z,97277.44
2022-07-25T08:30:32.263Z,97285.88
2022-07-25T08:33:03.432Z,97279.44
2022-07-25T08:35:32.099Z,97272.22
2022-07-25T08:38:00.563Z,97267.34
2022-07-25T08:40:31.110Z,97272.63
2022-07-25T08:42:59.727Z,97264.94
2022-07-25T08:45:28.702Z,97264.59
2022-07-25T08:47:57.509Z,97257.25
2022-07-25T08:50:27.448Z,97247.63
2022-07-25T08:53:16.266Z,97254.22
2022-07-25T08:55:45.866Z,97241.75
2022-07-25T08:58:14.205Z,97243.53
2022-07-25T09:00:42.249Z,97225.69
2022-07-25T09:03:10.336Z,97225.09
2022-07-25T09:05:39.203Z,97233.88
2022-07-25T09:08:11.208Z,97230.63
2022-07-25T09:10:39.700Z,97233.34
2022-07-25T09:13:13.938Z,97221.78
2022-07-25T09:15:43.738Z,97218.19
2022-07-25T09:18:14.515Z,97212.34
2022-07-25T09:20:45.821Z,97222.13
2022-07-25T09:23:14.450Z,97213.19
2022-07-25T09:25:42.795Z,97199.28
2022-07-25T09:28:13.922Z,97208.28
2022-07-25T09:30:42.386Z,97205.50
2022-07-25T09:33:10.098Z,97209.38
2022-07-25T09:35:38.817Z,97208.03
2022-07-25T09:38:11.063Z,97212.91
2022-07-25T09:40:39.492Z,97206.66
2022-07-25T09:43:07.329Z,97192.22
2022-07-25T09:45:36.412Z,97197.94
2022-07-25T09:48:05.778Z,97188.97
2022-07-25T09:50:34.411Z,97189.75
2022-07-25T09:53:03.732Z,97199.03
2022-07-25T09:55:31.989Z,97190.00
2022-07-25T09:57:59.775Z,97176.56
2022-07-25T10:00:29.470Z,97186.06
2022-07-25T10:03:06.854Z,97175.56
2022-07-25T10:05:50.661Z,97173.13
2022-07-25T10:08:19.910Z,97169.00
2022-07-25T10:10:47.790Z,97170.59
2022-07-25T10:13:17.988Z,97166.16
2022-07-25T10:15:50.446Z,97164.91
2022-07-25T10:18:21.735Z,97158.91
2022-07-25T10:20:51.275Z,97158.31
2022-07-25T10:23:20.646Z,97156.03
2022-07-25T10:25:49.283Z,97157.41
2022-07-25T10:28:20.357Z,97145.84
2022-07-25T10:30:48.349Z,97148.94
2022-07-25T10:33:18.623Z,97139.47
2022-07-25T10:35:47.846Z,97149.41
2022-07-25T10:38:15.664Z,97138.47
2022-07-25T10:40:46.561Z,97143.84
2022-07-25T10:43:16.171Z,97128.97
2022-07-25T10:45:46.090Z,97130.28
2022-07-25T10:48:22.352Z,97115.41
2022-07-25T10:50:56.554Z,97119.31
2022-07-25T10:53:35.543Z,97117.75
2022-07-25T10:56:11.045Z,97112.28
2022-07-25T10:58:46.885Z,97116.19
2022-07-25T11:01:21.110Z,97112.56
2022-07-25T11:03:49.273Z,97104.88
2022-07-25T11:06:18.857Z,97098.13
2022-07-25T11:08:46.811Z,97098.94
2022-07-25T11:11:14.473Z,97105.50
2022-07-25T11:13:42.754Z,97094.88
2022-07-25T11:16:10.979Z,97092.47
2022-07-25T11:18:40.911Z,97097.91
2022-07-25T11:21:09.585Z,97079.84
2022-07-25T11:23:41.564Z,97077.84
2022-07-25T11:26:11.364Z,97076.28
2022-07-25T11:28:44.206Z,97069.13
2022-07-25T11:31:12.450Z,97072.72
2022-07-25T11:33:40.577Z,97066.22
2022-07-25T11:36:09.699Z,97069.59
2022-07-25T11:38:39.381Z,97069.31
2022-07-25T11:41:07.898Z,97067.44
2022-07-25T11:43:35.716Z,97062.13
2022-07-25T11:46:06.601Z,97054.81
2022-07-25T11:48:36.749Z,97050.75
2022-07-25T11:51:18.590Z,97055.03
2022-07-25T11:53:50.095Z,97046.25
2022-07-25T11:56:41.249Z,97046.16
2022-07-25T11:59:08.882Z,97037.19
2022-07-25T12:01:38.520Z,97030.16
2022-07-25T12:04:10.958Z,97028.84
2022-07-25T12:06:39.339Z,97027.66
2022-07-25T12:09:18.897Z,97016.88
2022-07-25T12:11:48.042Z,97018.19
2022-07-25T12:14:16.110Z,97016.47
2022-07-25T12:16:43.872Z,97006.09
2022-07-25T12:19:19.902Z,97001.16
2022-07-25T12:21:47.596Z,97001.88
2022-07-25T12:24:16.649Z,96991.69
2022-07-25T12:26:44.332Z,96994.25
2022-07-25T12:29:11.959Z,96994.66
2022-07-25T12:31:39.601Z,96994.72
2022-07-25T12:34:07.456Z,96984.25
2022-07-25T12:36:41.143Z,96986.53
2022-07-25T12:39:09.262Z,96984.75
2022-07-25T12:41:40.047Z,96973.97
2022-07-25T12:44:07.836Z,96993.38
2022-07-25T12:46:36.069Z,96980.59
2022-07-25T12:49:04.119Z,96972.38
2022-07-25T12:51:31.945Z,96962.81
2022-07-25T12:53:59.589Z,96961.34
2022-07-25T12:56:27.266Z,96952.00
2022-07-25T12:58:56.305Z,96965.59
2022-07-25T13:01:24.018Z,96951.41
2022-07-25T13:03:51.718Z,96958.34
2022-07-25T13:06:20.828Z,96946.81
2022-07-25T13:08:48.513Z,96947.47
2022-07-25T13:11:16.157Z,96939.28
2022-07-25T13:13:43.824Z,96944.34
2022-07-25T13:16:12.974Z,96945.72
2022-07-25T13:18:40.696Z,96935.97
2022-07-25T13:21:08.374Z,96927.28
2022-07-25T13:23:36.114Z,96932.19
2022-07-25T13:26:03.920Z,96944.09
2022-07-25T13:28:31.624Z,96924.94
2022-07-25T13:31:00.490Z,96921.25
2022-07-25T13:33:30.559Z,96925.41
2022-07-25T13:35:58.484Z,96921.25
2022-07-25T13:38:26.182Z,96913.94
2022-07-25T13:40:58.738Z,96915.94
2022-07-25T13:43:27.041Z,96911.09
2022-07-25T13:45:54.828Z,96904.09
2022-07-25T13:48:31.010Z,96897.72
2022-07-25T13:51:00.657Z,96898.66
2022-07-25T13:53:30.474Z,96895.81
2022-07-25T13:55:59.083Z,96895.94
2022-07-25T13:58:27.076Z,96895.00
2022-07-25T14:00:55.308Z,96881.88
2022-07-25T14:03:22.988Z,96890.75
2022-07-25T14:05:50.755Z,96889.19
2022-07-25T14:08:20.186Z,96876.41
2022-07-25T14:10:47.839Z,96873.81
2022-07-25T14:13:15.855Z,96863.66
2022-07-25T14:15:44.017Z,96866.59
2022-07-25T14:18:11.693Z,96863.28
2022-07-25T14:20:39.773Z,96856.75
2022-07-25T14:23:07.421Z,96861.63
2022-07-25T14:25:37.312Z,96851.28
2022-07-25T14:28:05.177Z,96852.69
2022-07-25T14:30:32.858Z,96849.75
2022-07-25T14:33:00.522Z,96843.47
2022-07-25T14:35:32.276Z,96842.88
2022-07-25T14:38:00.681Z,96838.81
2022-07-25T14:40:28.575Z,96838.41
2022-07-25T14:42:57.576Z,96838.28
2022-07-25T14:45:25.304Z,96838.44
2022-07-25T14:47:53.958Z,96835.63
2022-07-25T14:50:21.785Z,96832.63
2022-07-25T14:52:49.456Z,96831.56
2022-07-25T14:55:17.258Z,96823.75
2022-07-25T14:57:45.307Z,96827.22
2022-07-25T15:00:15.555Z,96825.00
2022-07-25T15:02:43.202Z,96825.25
2022-07-25T15:05:11.198Z,96821.66
2022-07-25T15:07:38.986Z,96822.94
2022-07-25T15:10:08.323Z,96816.41
2022-07-25T15:12:36.024Z,96814.47
2022-07-25T15:15:03.726Z,96808.84
2022-07-25T15:17:33.463Z,96808.22
2022-07-25T15:20:01.274Z,96809.44
2022-07-25T15:22:28.956Z,96800.28
2022-07-25T15:25:27.551Z,96795.81
2022-07-25T15:27:44.652Z,96789.50
2022-07-25T15:30:13.145Z,96789.63
2022-07-25T15:32:42.127Z,96784.94
2022-07-25T15:35:10.395Z,96783.66
2022-07-25T15:37:38.031Z,96778.25
2022-07-25T15:40:06.908Z,96775.13
2022-07-25T15:42:34.653Z,96773.66
2022-07-25T15:45:31.619Z,96768.66
2022-07-25T15:47:52.245Z,96769.22
2022-07-25T15:50:20.376Z,96765.09
2022-07-25T15:52:48.134Z,96762.84
2022-07-25T15:55:16.096Z,96750.69
2022-07-25T15:57:43.770Z,96753.66
2022-07-25T16:00:12.534Z,96753.03
2022-07-25T16:02:40.182Z,96747.16
2022-07-25T16:05:10.080Z,96743.41
2022-07-25T16:07:37.831Z,96736.41
2022-07-25T16:10:06.355Z,96736.34
2022-07-25T16:12:34.017Z,96739.66
2022-07-25T16:15:01.689Z,96736.94
2022-07-25T16:17:29.342Z,96733.09
2022-07-25T16:19:56.992Z,96716.06
2022-07-25T16:22:26.360Z,96725.72
2022-07-25T16:24:54.091Z,96727.16
2022-07-25T16:27:21.760Z,96721.22
2022-07-25T16:29:49.430Z,96710.66
2022-07-25T16:32:17.059Z,96724.44
2022-07-25T16:34:46.123Z,96723.28
2022-07-25T16:37:14.087Z,96723.44
2022-07-25T16:39:43.096Z,96729.84
2022-07-25T16:42:10.746Z,96724.31
2022-07-25T16:44:38.413Z,96729.03
2022-07-25T16:47:06.233Z,96729.22
2022-07-25T16:49:34.009Z,96726.06
2022-07-25T16:52:01.693Z,96733.06
2022-07-25T16:54:30.446Z,96723.94
2022-07-25T16:56:59.870Z,96723.81
2022-07-25T16:59:27.686Z,96729.69
2022-07-25T17:01:55.409Z,96727.53
2022-07-25T17:04:23.140Z,96727.81
2022-07-25T17:06:51.826Z,96731.31
2022-07-25T17:09:19.499Z,96744.34
2022-07-25T17:11:47.164Z,96740.97
2022-07-25T17:14:16.183Z,96749.63
2022-07-25T17:16:44.246Z,96741.97
2022-07-25T17:19:11.929Z,96739.47
2022-07-25T17:21:39.593Z,96744.09
2022-07-25T17:24:08.125Z,96741.41
2022-07-25T17:26:36.587Z,96739.28
2022-07-25T17:29:07.893Z,96751.88
2022-07-25T17:31:37.508Z,96762.78
2022-07-25T17:34:05.303Z,96774.81
2022-07-25T17:36:32.987Z,96809.22
2022-07-25T17:39:00.628Z,96843.06
2022-07-25T17:41:28.420Z,96843.19
2022-07-25T17:43:56.091Z,96860.88
2022-07-25T17:46:23.829Z,96852.75
2022-07-25T17:48:52.953Z,96873.13
2022-07-25T17:51:20.741Z,96904.00
2022-07-25T17:53:48.405Z,96932.47
2022-07-25T17:56:16.084Z,96955.03
2022-07-25T17:58:43.757Z,96919.25
2022-07-25T18:01:11.452Z,96912.03
2022-07-25T18:03:39.349Z,96900.53
2022-07-25T18:06:09.032Z,96881.78
2022-07-25T18:08:36.953Z,96879.44
2022-07-25T18:11:04.760Z,96880.50
2022-07-25T18:13:32.775Z,96891.94
2022-07-25T18:16:00.663Z,96900.22
2022-07-25T18:18:28.581Z,96893.59
2022-07-25T18:20:56.485Z,96874.34
2022-07-25T18:23:27.109Z,96873.56
2022-07-25T18:25:54.937Z,96878.53
2022-07-25T18:28:25.088Z,96874.44
2022-07-25T18:30:52.935Z,96873.81
2022-07-25T18:33:22.115Z,96859.94
2022-07-25T18:35:51.246Z,96862.41
2022-07-25T18:38:18.954Z,96858.84
2022-07-25T18:40:49.603Z,96863.59
2022-07-25T18:43:22.099Z,96862.16
2022-07-25T18:45:50.814Z,96855.81
2022-07-25T18:48:18.561Z,96860.25
2022-07-25T18:50:46.278Z,96854.25
2022-07-25T18:53:14.004Z,96861.66
2022-07-25T18:55:42.398Z,96869.88
2022-07-25T18:58:15.925Z,96876.91
2022-07-25T19:00:43.945Z,96887.59
2022-07-25T19:03:11.785Z,96876.09
2022-07-25T19:05:39.837Z,96887.53
2022-07-25T19:08:07.793Z,96886.31
2022-07-25T19:10:35.451Z,96882.97
2022-07-25T19:13:03.225Z,96893.91
2022-07-25T19:15:32.386Z,96885.06
2022-07-25T19:18:00.149Z,96883.97
2022-07-25T19:20:28.221Z,96887.38
2022-07-25T19:22:55.990Z,96894.97
2022-07-25T19:25:23.931Z,96905.69
2022-07-25T19:27:51.621Z,96910.75
2022-07-25T19:30:19.929Z,96904.47
2022-07-25T19:32:49.008Z,96900.84
2022-07-25T19:35:24.120Z,96903.44
2022-07-25T19:37:53.741Z,96908.16
2022-07-25T19:40:21.517Z,96904.41
2022-07-25T19:42:49.220Z,96910.91
2022-07-25T19:45:16.892Z,96913.38
2022-07-25T19:47:44.513Z,96904.19
2022-07-25T19:50:13.603Z,96890.47
2022-07-25T19:52:41.244Z,96893.13
2022-07-25T19:55:09.944Z,96898.16
2022-07-25T19:57:37.604Z,96895.81
2022-07-25T20:00:05.973Z,96888.69
2022-07-25T20:02:34.513Z,96874.84
2022-07-25T20:05:02.235Z,96876.91
2022-07-25T20:07:31.250Z,96878.78
2022-07-25T20:09:59.360Z,96880.66
2022-07-25T20:12:27.048Z,96876.72
2022-07-25T20:14:54.777Z,96875.50
2022-07-25T20:17:23.367Z,96887.53
2022-07-25T20:19:51.806Z,96894.31
2022-07-25T20:22:19.463Z,96895.41
2022-07-25T20:24:48.511Z,96902.19
2022-07-25T20:27:16.197Z,96912.28
2022-07-25T20:29:43.994Z,96909.59
2022-07-25T20:32:11.762Z,96915.16
2022-07-25T20:34:39.692Z,96927.03
2022-07-25T20:37:07.299Z,96924.13
2022-07-25T20:39:35.003Z,96926.81
2022-07-25T20:42:04.067Z,96922.25
2022-07-25T20:44:31.731Z,96916.66
2022-07-25T20:46:59.381Z,96922.00
2022-07-25T20:49:27.112Z,96926.25
2022-07-25T20:51:54.938Z,96936.91
2022-07-25T20:54:22.798Z,96967.84
2022-07-25T20:56:50.504Z,96967.75
2022-07-25T20:59:19.593Z,96957.66
2022-07-25T21:01:47.437Z,96953.34
2022-07-25T21:04:16.546Z,96944.81
2022-07-25T21:06:45.948Z,96942.78
2022-07-25T21:09:13.695Z,96932.00
2022-07-25T21:11:41.384Z,96943.97
2022-07-25T21:14:09.289Z,96955.78
2022-07-25T21:16:38.726Z,96957.41
2022-07-25T21:19:06.591Z,96957.19
2022-07-25T21:21:36.115Z,96970.22
2022-07-25T21:24:03.797Z,96985.44
2022-07-25T21:26:31.516Z,96995.06
2022-07-25T21:28:59.218Z,96990.56
2022-07-25T21:31:26.998Z,96989.41
2022-07-25T21:33:56.091Z,97001.94
2022-07-25T21:36:23.881Z,97016.81
2022-07-25T21:38:51.598Z,97017.53
2022-07-25T21:41:19.485Z,97022.81
2022-07-25T21:43:47.476Z,97024.91
2022-07-25T21:46:15.619Z,97027.72
2022-07-25T21:49:01.204Z,97030.81
2022-07-25T21:51:40.192Z,97039.34
2022-07-25T21:54:08.849Z,97037.22
2022-07-25T21:56:36.539Z,97029.03
2022-07-25T21:59:04.537Z,97032.56
2022-07-25T22:01:32.455Z,97047.75
2022-07-25T22:04:00.264Z,97063.28
2022-07-25T22:06:28.092Z,97068.38
2022-07-25T22:08:57.264Z,97107.84
2022-07-25T22:11:42.573Z,97127.63
2022-07-25T22:14:13.264Z,97108.28
2022-07-25T22:16:40.999Z,97109.31
2022-07-25T22:19:09.140Z,97099.94
2022-07-25T22:21:37.055Z,97102.34
2022-07-25T22:24:06.866Z,97108.19
2022-07-25T22:26:34.597Z,97110.19
2022-07-25T22:29:02.291Z,97110.00
2022-07-25T22:31:30.679Z,97122.97
2022-07-25T22:33:58.363Z,97123.75
2022-07-25T22:36:26.305Z,97129.38
2022-07-25T22:38:53.946Z,97134.88
2022-07-25T22:41:23.166Z,97143.94
2022-07-25T22:43:58.942Z,97151.75
2022-07-25T22:46:27.888Z,97162.59
2022-07-25T22:48:55.743Z,97163.22
2022-07-25T22:51:23.824Z,97173.81
2022-07-25T22:53:51.634Z,97177.97
2022-07-25T22:56:19.492Z,97187.56
2022-07-25T22:58:48.915Z,97186.94
2022-07-25T23:01:17.494Z,97196.75
2022-07-25T23:03:45.283Z,97196.69
2022-07-25T23:06:13.568Z,97205.88
2022-07-25T23:08:41.585Z,97213.72
2022-07-25T23:11:09.568Z,97209.25
2022-07-25T23:13:37.530Z,97217.53
2022-07-25T23:16:10.306Z,97232.03
2022-07-25T23:18:38.468Z,97234.63
2022-07-25T23:21:06.287Z,97241.53
2022-07-25T23:23:34.241Z,97244.38
2022-07-25T23:26:02.142Z,97247.66
2022-07-25T23:28:29.803Z,97239.72
2022-07-25T23:30:57.447Z,97241.91
2022-07-25T23:33:26.405Z,97245.56
2022-07-25T23:35:54.130Z,97251.25
2022-07-25T23:38:21.770Z,97250.56
2022-07-25T23:40:50.042Z,97253.63
2022-07-25T23:43:23.545Z,97259.00
2022-07-25T23:46:06.425Z,97262.81
2022-07-25T23:48:36.504Z,97268.56
2022-07-25T23:51:04.287Z,97277.88
2022-07-25T23:53:34.485Z,97283.47
2022-07-25T23:56:02.121Z,97291.97
2022-07-25T23:58:29.762Z,97294.94
